Time;durP1;ratioP1;P1;durP2;ratioP2;P2;SDS_P1;SDS_P2;PMS_P1;PMS_P2;Temp;Humidity;BMP_temperature;BMP_pressure;BME280_temperature;BME280_humidity;BME280_pressure;Samples;Min_cycle;Max_cycle;Signal;HPM_P1;HPM_P2
2022/09/25 00:01:21;;;;;;;3.3;3;;;;;;;;;;;;;
2022/09/25 00:03:46;;;;;;;3.4;3.1;;;;;;;;;;;;;
2022/09/25 00:06:11;;;;;;;4.5;3.3;;;;;;;;;;;;;
2022/09/25 00:08:37;;;;;;;3;2.7;;;;;;;;;;;;;
2022/09/25 00:11:04;;;;;;;2.9;2.6;;;;;;;;;;;;;
2022/09/25 00:13:29;;;;;;;3.7;3.2;;;;;;;;;;;;;
2022/09/25 00:15:55;;;;;;;3.7;3;;;;;;;;;;;;;
2022/09/25 00:19:48;;;;;;;3;2.7;;;;;;;;;;;;;
2022/09/25 00:20:46;;;;;;;2.7;2.5;;;;;;;;;;;;;
2022/09/25 00:23:12;;;;;;;3.1;2.7;;;;;;;;;;;;;
2022/09/25 00:25:37;;;;;;;3;2.7;;;;;;;;;;;;;
2022/09/25 00:28:02;;;;;;;3.2;2.8;;;;;;;;;;;;;
2022/09/25 00:30:28;;;;;;;3.4;2.8;;;;;;;;;;;;;
2022/09/25 00:32:54;;;;;;;3.4;3.1;;;;;;;;;;;;;
2022/09/25 00:35:20;;;;;;;4.3;3.1;;;;;;;;;;;;;
2022/09/25 00:37:45;;;;;;;3;2.7;;;;;;;;;;;;;
2022/09/25 00:40:12;;;;;;;3.4;3.1;;;;;;;;;;;;;
2022/09/25 00:42:37;;;;;;;3.4;3.1;;;;;;;;;;;;;
2022/09/25 00:45:04;;;;;;;3.4;3;;;;;;;;;;;;;
2022/09/25 00:47:29;;;;;;;3.4;3;;;;;;;;;;;;;
2022/09/25 00:49:54;;;;;;;3.1;2.8;;;;;;;;;;;;;
2022/09/25 00:52:20;;;;;;;4.1;3.1;;;;;;;;;;;;;
2022/09/25 00:54:46;;;;;;;3.8;2.9;;;;;;;;;;;;;
2022/09/25 00:57:11;;;;;;;3.5;3.1;;;;;;;;;;;;;
2022/09/25 00:59:38;;;;;;;3;2.8;;;;;;;;;;;;;
2022/09/25 01:02:02;;;;;;;3.5;3;;;;;;;;;;;;;
2022/09/25 01:04:28;;;;;;;3.2;2.9;;;;;;;;;;;;;
2022/09/25 01:06:53;;;;;;;3.4;3.1;;;;;;;;;;;;;
2022/09/25 01:09:18;;;;;;;5.1;3;;;;;;;;;;;;;
2022/09/25 01:11:44;;;;;;;3.4;3.1;;;;;;;;;;;;;
2022/09/25 01:14:09;;;;;;;3.1;2.7;;;;;;;;;;;;;
2022/09/25 01:16:34;;;;;;;2.8;2.6;;;;;;;;;;;;;
2022/09/25 01:18:59;;;;;;;3.1;2.8;;;;;;;;;;;;;
2022/09/25 01:21:24;;;;;;;3.3;3;;;;;;;;;;;;;
2022/09/25 01:23:51;;;;;;;3.7;3;;;;;;;;;;;;;
2022/09/25 01:26:18;;;;;;;3.4;2.9;;;;;;;;;;;;;
2022/09/25 01:28:44;;;;;;;3.1;2.8;;;;;;;;;;;;;
2022/09/25 01:31:09;;;;;;;3.3;3;;;;;;;;;;;;;
2022/09/25 01:33:34;;;;;;;4.3;2.8;;;;;;;;;;;;;
2022/09/25 01:36:00;;;;;;;3.1;2.9;;;;;;;;;;;;;
2022/09/25 01:38:24;;;;;;;3.2;2.9;;;;;;;;;;;;;
2022/09/25 01:40:51;;;;;;;3.1;2.8;;;;;;;;;;;;;
2022/09/25 01:43:17;;;;;;;3.5;3.2;;;;;;;;;;;;;
2022/09/25 01:45:41;;;;;;;4.3;3;;;;;;;;;;;;;
2022/09/25 01:48:07;;;;;;;5;3;;;;;;;;;;;;;
2022/09/25 01:50:32;;;;;;;3.3;3;;;;;;;;;;;;;
2022/09/25 01:52:57;;;;;;;4;3.3;;;;;;;;;;;;;
2022/09/25 01:55:23;;;;;;;4.3;3.5;;;;;;;;;;;;;
2022/09/25 01:57:48;;;;;;;3.5;3.1;;;;;;;;;;;;;
2022/09/25 02:00:13;;;;;;;4.4;3.3;;;;;;;;;;;;;
2022/09/25 02:02:38;;;;;;;3.7;3.1;;;;;;;;;;;;;
2022/09/25 02:05:04;;;;;;;3.9;3.1;;;;;;;;;;;;;
2022/09/25 02:07:29;;;;;;;3.1;2.8;;;;;;;;;;;;;
2022/09/25 02:09:54;;;;;;;3.1;2.8;;;;;;;;;;;;;
2022/09/25 02:12:23;;;;;;;3.4;3.1;;;;;;;;;;;;;
2022/09/25 02:14:48;;;;;;;3.8;3;;;;;;;;;;;;;
2022/09/25 02:20:30;;;;;;;3.5;2.9;;;;;;;;;;;;;
2022/09/25 02:22:04;;;;;;;3.5;2.8;;;;;;;;;;;;;
2022/09/25 02:24:28;;;;;;;3;2.5;;;;;;;;;;;;;
2022/09/25 02:26:55;;;;;;;3.4;2.8;;;;;;;;;;;;;
2022/09/25 02:29:20;;;;;;;2.8;2.6;;;;;;;;;;;;;
2022/09/25 02:31:47;;;;;;;2.9;2.7;;;;;;;;;;;;;
2022/09/25 02:34:12;;;;;;;2.8;2.4;;;;;;;;;;;;;
2022/09/25 02:36:37;;;;;;;3.2;2.9;;;;;;;;;;;;;
2022/09/25 02:39:03;;;;;;;4.7;2.9;;;;;;;;;;;;;
2022/09/25 02:41:28;;;;;;;5.8;3.3;;;;;;;;;;;;;
2022/09/25 02:43:54;;;;;;;3.6;2.8;;;;;;;;;;;;;
2022/09/25 02:46:19;;;;;;;3.1;2.8;;;;;;;;;;;;;
2022/09/25 02:48:47;;;;;;;2.8;2.6;;;;;;;;;;;;;
2022/09/25 02:51:13;;;;;;;4.2;2.6;;;;;;;;;;;;;
2022/09/25 02:53:38;;;;;;;4;2.7;;;;;;;;;;;;;
2022/09/25 02:56:03;;;;;;;3.6;2.8;;;;;;;;;;;;;
2022/09/25 02:58:28;;;;;;;2.9;2.7;;;;;;;;;;;;;
2022/09/25 03:00:53;;;;;;;3;2.7;;;;;;;;;;;;;
2022/09/25 03:03:22;;;;;;;3.8;3;;;;;;;;;;;;;
2022/09/25 03:05:46;;;;;;;3.1;2.8;;;;;;;;;;;;;
2022/09/25 03:10:36;;;;;;;2.8;2.6;;;;;;;;;;;;;
2022/09/25 03:13:01;;;;;;;3.9;2.9;;;;;;;;;;;;;
2022/09/25 03:15:28;;;;;;;3;2.8;;;;;;;;;;;;;
2022/09/25 03:17:53;;;;;;;4.8;4.3;;;;;;;;;;;;;
2022/09/25 03:20:18;;;;;;;7.2;6.1;;;;;;;;;;;;;
2022/09/25 03:22:43;;;;;;;4.2;3.8;;;;;;;;;;;;;
2022/09/25 03:25:13;;;;;;;4.4;4;;;;;;;;;;;;;
2022/09/25 03:27:37;;;;;;;3.6;3.1;;;;;;;;;;;;;
2022/09/25 03:30:04;;;;;;;3;2.8;;;;;;;;;;;;;
2022/09/25 03:32:27;;;;;;;3.5;2.7;;;;;;;;;;;;;
2022/09/25 03:34:52;;;;;;;3.3;2.9;;;;;;;;;;;;;
2022/09/25 03:37:18;;;;;;;3.3;3;;;;;;;;;;;;;
2022/09/25 03:39:43;;;;;;;3.2;2.9;;;;;;;;;;;;;
2022/09/25 03:42:08;;;;;;;3.3;3;;;;;;;;;;;;;
2022/09/25 03:44:33;;;;;;;3.7;2.7;;;;;;;;;;;;;
2022/09/25 03:46:58;;;;;;;3.4;2.6;;;;;;;;;;;;;
2022/09/25 03:49:23;;;;;;;3.2;2.9;;;;;;;;;;;;;
2022/09/25 03:51:53;;;;;;;3.1;2.8;;;;;;;;;;;;;
2022/09/25 03:54:18;;;;;;;3.1;2.7;;;;;;;;;;;;;
2022/09/25 03:56:43;;;;;;;4.2;2.9;;;;;;;;;;;;;
2022/09/25 03:59:09;;;;;;;7.1;4.2;;;;;;;;;;;;;
2022/09/25 04:02:50;;;;;;;5.5;3.9;;;;;;;11.67;93.70996;933.0701;;;;
2022/09/25 04:05:20;;;;;;;4.8;2.9;;;;;;;11.52;94.94922;933.0519;;;;
2022/09/25 04:07:44;;;;;;;4.9;3.9;;;;;;;11.58;94.7207;933.0246;;;;
2022/09/25 04:10:19;;;;;;;4.1;3;;;;;;;11.51;94.99121;932.9889;;;;
2022/09/25 04:12:43;;;;;;;3;2.7;;;;;;;11.53;95.15527;932.9467;;;;
2022/09/25 04:15:18;;;;;;;3.9;3.1;;;;;;;11.49;95.09961;932.9029;;;;
2022/09/25 04:17:44;;;;;;;6.4;4.6;;;;;;;11.42;95.54297;932.9813;;;;
2022/09/25 04:20:08;;;;;;;16.6;9.9;;;;;;;11.49;95.15625;933.0449;;;;
2022/09/25 04:22:40;;;;;;;17.9;10.4;;;;;;;11.32;96.03613;932.9907;;;;
2022/09/25 04:28:54;;;;;;;9.2;5.7;;;;;;;11.22;96.08301;932.9559;;;;
2022/09/25 04:34:39;;;;;;;4;2.9;;;;;;;11.07;96.6543;932.9821;;;;
2022/09/25 04:37:04;;;;;;;3.7;3.1;;;;;;;11.14;96.37305;933.0218;;;;
2022/09/25 04:39:34;;;;;;;3.5;3.2;;;;;;;11.23;95.91113;932.9478;;;;
2022/09/25 04:42:05;;;;;;;3.1;2.8;;;;;;;11.19;96.01758;933.0129;;;;
2022/09/25 04:44:30;;;;;;;3.9;2.7;;;;;;;11.27;95.69434;933.1096;;;;
2022/09/25 04:46:59;;;;;;;3.5;2.5;;;;;;;11.29;95.5957;933.1414;;;;
2022/09/25 04:49:25;;;;;;;4.2;2.8;;;;;;;11.38;95.19238;933.1564;;;;
2022/09/25 04:51:52;;;;;;;3;2.7;;;;;;;11.42;94.97363;933.1797;;;;
2022/09/25 04:54:18;;;;;;;3.1;2.8;;;;;;;11.46;94.67188;933.1548;;;;
2022/09/25 04:56:45;;;;;;;3.7;3.1;;;;;;;11.52;94.56055;933.1436;;;;
2022/09/25 04:59:10;;;;;;;4.2;2.8;;;;;;;11.54;94.44727;933.1906;;;;
2022/09/25 05:01:41;;;;;;;3.5;2.7;;;;;;;11.61;94.17676;933.2823;;;;
2022/09/25 05:04:15;;;;;;;3.6;3.3;;;;;;;11.62;94.02051;933.2153;;;;
2022/09/25 05:06:42;;;;;;;3.3;3;;;;;;;11.68;93.84961;933.1785;;;;
2022/09/25 05:09:07;;;;;;;3.5;3.1;;;;;;;11.64;93.91016;933.1722;;;;
2022/09/25 05:11:35;;;;;;;3.8;3.3;;;;;;;11.64;93.71387;933.1603;;;;
2022/09/25 05:14:00;;;;;;;2.9;2.7;;;;;;;11.5;93.9248;933.1213;;;;
2022/09/25 05:16:27;;;;;;;3.3;2.8;;;;;;;11.54;93.9668;933.0518;;;;
2022/09/25 05:21:58;;;;;;;3;2.7;;;;;;;11.4;94.05176;932.9387;;;;
2022/09/25 05:24:27;;;;;;;3.5;2.7;;;;;;;11.28;94.48438;932.986;;;;
2022/09/25 05:26:55;;;;;;;3;2.7;;;;;;;11.42;94.10352;932.9349;;;;
2022/09/25 05:30:36;;;;;;;5.7;3.1;;;;;;;11.49;94.03711;932.9427;;;;
2022/09/25 05:36:21;;;;;;;4;2.9;;;;;;;11.65;93.66016;932.9138;;;;
2022/09/25 05:38:49;;;;;;;3.3;2.8;;;;;;;11.65;93.44141;932.9178;;;;
2022/09/25 05:41:14;;;;;;;2.9;2.6;;;;;;;11.67;93.18555;932.9536;;;;
2022/09/25 05:43:46;;;;;;;2.8;2.6;;;;;;;11.67;93.08008;932.9353;;;;
2022/09/25 05:46:15;;;;;;;3.1;2.6;;;;;;;11.63;93.20801;932.9793;;;;
2022/09/25 05:48:39;;;;;;;2.7;2.5;;;;;;;11.56;93.70996;932.9553;;;;
2022/09/25 05:51:06;;;;;;;3;2.7;;;;;;;11.51;93.8584;932.9985;;;;
2022/09/25 05:53:31;;;;;;;3.6;2.7;;;;;;;11.43;94.52734;933.0505;;;;
2022/09/25 05:55:59;;;;;;;3.6;2.8;;;;;;;11.32;94.99512;933.0417;;;;
2022/09/25 05:58:24;;;;;;;3.4;3;;;;;;;11.41;95.14258;933.0386;;;;
2022/09/25 06:00:51;;;;;;;4;3.6;;;;;;;11.35;95.11719;933.048;;;;
2022/09/25 06:03:16;;;;;;;4;3.3;;;;;;;11.5;94.89746;933.0376;;;;
2022/09/25 06:05:45;;;;;;;4.2;3.6;;;;;;;11.56;94.44043;933.0765;;;;
2022/09/25 06:08:10;;;;;;;3.4;3.1;;;;;;;11.59;94.06055;933.0134;;;;
2022/09/25 06:10:38;;;;;;;4.7;3.4;;;;;;;11.61;94.24609;932.9734;;;;
2022/09/25 06:13:03;;;;;;;3.9;3.4;;;;;;;11.72;94.26953;933.0037;;;;
2022/09/25 06:15:36;;;;;;;3.5;3.2;;;;;;;11.69;93.46191;933.0276;;;;
2022/09/25 06:18:04;;;;;;;4.1;3.3;;;;;;;11.52;93.83887;933.0535;;;;
2022/09/25 06:20:29;;;;;;;4.9;2.8;;;;;;;11.46;94.64941;933.0815;;;;
2022/09/25 06:22:58;;;;;;;3;2.7;;;;;;;11.7;93.67188;933.0356;;;;
2022/09/25 06:25:27;;;;;;;4.2;2.7;;;;;;;11.71;93.22559;933.109;;;;
2022/09/25 06:27:53;;;;;;;5;3.3;;;;;;;11.56;94.02832;933.1905;;;;
2022/09/25 06:30:22;;;;;;;3.4;3.1;;;;;;;11.48;94.57324;933.1102;;;;
2022/09/25 06:32:48;;;;;;;3.6;3.2;;;;;;;11.72;94.39746;933.1791;;;;
2022/09/25 06:35:16;;;;;;;3.7;3;;;;;;;11.89;93.4707;933.105;;;;
2022/09/25 06:37:48;;;;;;;6;4.9;;;;;;;11.95;92.7168;933.1135;;;;
2022/09/25 06:40:22;;;;;;;4.7;4.2;;;;;;;11.81;93.18945;933.0691;;;;
2022/09/25 06:42:54;;;;;;;5;3.9;;;;;;;11.94;93.36816;933.0944;;;;
2022/09/25 06:51:18;;;;;;;3.5;2.7;;;;;;;12.15;92.34668;933.1224;;;;
2022/09/25 06:53:47;;;;;;;3.4;3.1;;;;;;;12.06;92.48828;933.1716;;;;
2022/09/25 06:56:12;;;;;;;4.5;3.8;;;;;;;12.09;92.68848;933.1555;;;;
2022/09/25 06:58:41;;;;;;;5.7;4.9;;;;;;;12.21;92.39453;933.1596;;;;
2022/09/25 07:01:12;;;;;;;6.8;4.8;;;;;;;12.28;92.33008;933.1435;;;;
2022/09/25 07:03:48;;;;;;;4.9;4.4;;;;;;;12.26;92.0166;933.1205;;;;
2022/09/25 07:06:07;;;;;;;4.3;3.9;;;;;;;12.44;91.79102;933.1142;;;;
2022/09/25 07:08:32;;;;;;;4.4;4;;;;;;;12.56;91.74512;933.1086;;;;
2022/09/25 07:11:38;;;;;;;4.9;3.8;;;;;;;12.51;93.21289;933.18;;;;
2022/09/25 07:14:02;;;;;;;5.1;3.5;;;;;;;12.7;92.30273;933.0808;;;;
2022/09/25 07:19:32;;;;;;;4.7;3.4;;;;;;;13.04;91.36328;932.9949;;;;
2022/09/25 07:21:58;;;;;;;3.7;3.2;;;;;;;13.18;88.64844;932.9698;;;;
2022/09/25 07:24:25;;;;;;;3.1;2.8;;;;;;;13.36;88.34082;932.9581;;;;
2022/09/25 07:26:51;;;;;;;3.5;2.8;;;;;;;13.5;86.03613;932.8873;;;;
2022/09/25 07:29:16;;;;;;;3.2;2.7;;;;;;;13.78;85.74414;932.8845;;;;
2022/09/25 07:31:53;;;;;;;2.9;2.5;;;;;;;13.96;84.8252;932.8875;;;;
2022/09/25 07:34:20;;;;;;;3.5;2.7;;;;;;;13.98;82.87207;932.8544;;;;
2022/09/25 07:36:46;;;;;;;2.7;2.5;;;;;;;14.13;83.00488;932.8728;;;;
2022/09/25 07:39:15;;;;;;;3.1;2.8;;;;;;;13.89;83.36328;932.7963;;;;
2022/09/25 07:41:43;;;;;;;3.7;2.4;;;;;;;13.69;83.98047;932.8304;;;;
2022/09/25 07:44:08;;;;;;;2.2;2;;;;;;;13.88;83.00293;932.798;;;;
2022/09/25 07:46:36;;;;;;;2.5;2.3;;;;;;;13.98;83.48145;932.7856;;;;
2022/09/25 07:49:01;;;;;;;3.6;2.5;;;;;;;14.37;82.56738;932.8042;;;;
2022/09/25 07:51:31;;;;;;;7.7;3.6;;;;;;;14.67;80.36328;932.7849;;;;
2022/09/25 07:53:55;;;;;;;6;3.2;;;;;;;15;78.2207;932.7654;;;;
2022/09/25 07:56:23;;;;;;;2.5;2.3;;;;;;;15.19;76.13281;932.8466;;;;
2022/09/25 07:58:48;;;;;;;3.5;2.8;;;;;;;14.74;77.01172;932.7908;;;;
2022/09/25 08:01:15;;;;;;;2.8;2.5;;;;;;;14.73;79.03906;932.9;;;;
2022/09/25 08:03:40;;;;;;;6.5;2.7;;;;;;;14.58;79.47168;932.8883;;;;
2022/09/25 08:06:10;;;;;;;3;2.2;;;;;;;14.81;79.60742;932.9228;;;;
2022/09/25 08:08:33;;;;;;;2.8;2.5;;;;;;;14.77;78.62988;932.9226;;;;
2022/09/25 08:11:02;;;;;;;2.7;2.5;;;;;;;14.84;78.97754;932.8929;;;;
2022/09/25 08:13:33;;;;;;;2.5;2.3;;;;;;;14.73;79.52344;932.9352;;;;
2022/09/25 08:16:00;;;;;;;2.6;2.4;;;;;;;14.76;80.09277;932.9892;;;;
2022/09/25 08:18:25;;;;;;;2.3;2.1;;;;;;;14.6;80.98535;932.9698;;;;
2022/09/25 08:20:53;;;;;;;2.4;2.2;;;;;;;14.91;80.28223;932.8862;;;;
2022/09/25 08:23:18;;;;;;;2.8;2.1;;;;;;;14.83;79.5293;932.8644;;;;
2022/09/25 08:25:46;;;;;;;2.6;2;;;;;;;15.22;78.36523;932.7944;;;;
2022/09/25 08:28:11;;;;;;;2.1;1.9;;;;;;;15.53;76.22754;932.7681;;;;
2022/09/25 08:30:42;;;;;;;2.7;2.1;;;;;;;15.73;77.13867;932.7353;;;;
2022/09/25 08:33:11;;;;;;;3.1;2;;;;;;;15.66;76.96582;932.7286;;;;
2022/09/25 08:35:35;;;;;;;1.9;1.8;;;;;;;15.76;76.39258;932.7742;;;;
2022/09/25 08:38:03;;;;;;;2;1.8;;;;;;;15.8;75.88184;932.697;;;;
2022/09/25 08:40:29;;;;;;;2.2;2;;;;;;;15.86;74.64258;932.6889;;;;
2022/09/25 08:42:52;;;;;;;2.3;1.9;;;;;;;16;72.41113;932.61;;;;
2022/09/25 08:50:17;;;;;;;1.9;1.8;;;;;;;16.92;72.13672;932.559;;;;
2022/09/25 08:52:45;;;;;;;2.8;1.9;;;;;;;17.36;69.28516;932.5148;;;;
2022/09/25 08:55:13;;;;;;;2.3;1.7;;;;;;;17.34;65.70996;932.5313;;;;
2022/09/25 08:57:39;;;;;;;3.1;1.9;;;;;;;17.14;65.04297;932.5385;;;;
2022/09/25 09:00:10;;;;;;;2;1.8;;;;;;;17.38;67.0957;932.4991;;;;
2022/09/25 09:02:39;;;;;;;2;1.9;;;;;;;16.98;65.27344;932.4885;;;;
2022/09/25 09:05:03;;;;;;;2.3;2.1;;;;;;;16.8;68.31641;932.5206;;;;
2022/09/25 09:07:33;;;;;;;2.3;2.1;;;;;;;17.17;68.64063;932.3945;;;;
2022/09/25 09:09:58;;;;;;;2.4;2;;;;;;;17.31;68.28125;932.4846;;;;
2022/09/25 09:12:24;;;;;;;2;1.8;;;;;;;17.72;67.47168;932.3798;;;;
2022/09/25 09:14:49;;;;;;;2.1;1.9;;;;;;;18.05;64.81641;932.4444;;;;
2022/09/25 09:17:16;;;;;;;2.2;2;;;;;;;18.18;63.02441;932.3664;;;;
2022/09/25 09:19:39;;;;;;;1.6;1.5;;;;;;;18.1;63.86035;932.3848;;;;
2022/09/25 09:22:05;;;;;;;2;1.8;;;;;;;17.99;63.24121;932.3717;;;;
2022/09/25 09:24:30;;;;;;;3.1;2.1;;;;;;;17.99;63.70508;932.3443;;;;
2022/09/25 09:26:55;;;;;;;1.9;1.8;;;;;;;17.71;63.70996;932.3543;;;;
2022/09/25 09:29:20;;;;;;;2.3;2.1;;;;;;;18.21;63.23828;932.3711;;;;
2022/09/25 09:31:48;;;;;;;2;1.8;;;;;;;18.94;61.61914;932.3543;;;;
2022/09/25 09:34:13;;;;;;;2.4;1.8;;;;;;;19.51;60.96387;932.2999;;;;
2022/09/25 09:36:39;;;;;;;3;2.1;;;;;;;19.42;61.42969;932.3205;;;;
2022/09/25 09:39:05;;;;;;;1.9;1.8;;;;;;;19.37;56.75195;932.288;;;;
2022/09/25 09:41:32;;;;;;;2.3;1.9;;;;;;;19.69;57.71484;932.1955;;;;
2022/09/25 09:44:00;;;;;;;2.1;2;;;;;;;19.71;59.90625;932.2168;;;;
2022/09/25 09:46:25;;;;;;;1.9;1.7;;;;;;;19.35;58.39063;932.2469;;;;
2022/09/25 09:48:52;;;;;;;1.9;1.8;;;;;;;19.39;59.70313;932.2534;;;;
2022/09/25 09:51:17;;;;;;;2.9;1.6;;;;;;;19.55;60.33008;932.2687;;;;
2022/09/25 09:53:42;;;;;;;2.5;1.7;;;;;;;19.59;59.32031;932.2352;;;;
2022/09/25 09:56:07;;;;;;;1.8;1.7;;;;;;;19.45;60.60742;932.25;;;;
2022/09/25 09:58:32;;;;;;;1.6;1.5;;;;;;;19.42;59.75195;932.2527;;;;
2022/09/25 10:00:57;;;;;;;1.9;1.7;;;;;;;19.34;60.5332;932.1649;;;;
2022/09/25 10:03:31;;;;;;;2.4;2.2;;;;;;;19.2;62.5293;932.2346;;;;
2022/09/25 10:05:56;;;;;;;2.8;2.5;;;;;;;18.67;63.85156;932.2349;;;;
2022/09/25 10:08:21;;;;;;;2.6;2.2;;;;;;;18.66;63.24414;932.2896;;;;
2022/09/25 10:10:47;;;;;;;3.4;2.3;;;;;;;18.27;65.87305;932.3303;;;;
2022/09/25 10:13:12;;;;;;;2.3;2.1;;;;;;;17.72;68.28613;932.2838;;;;
2022/09/25 10:15:41;;;;;;;3.3;2;;;;;;;17.47;70.42773;932.2901;;;;
2022/09/25 10:18:06;;;;;;;2.3;2.1;;;;;;;17.35;69.50391;932.3733;;;;
2022/09/25 10:20:31;;;;;;;2.3;2;;;;;;;17.38;68.26758;932.3405;;;;
2022/09/25 10:22:57;;;;;;;2.3;1.9;;;;;;;16.99;70.68652;932.4487;;;;
2022/09/25 10:25:27;;;;;;;2.2;2;;;;;;;16.44;74.77637;932.4383;;;;
2022/09/25 10:27:55;;;;;;;2.1;1.9;;;;;;;16.42;74.75;932.4442;;;;
2022/09/25 10:30:23;;;;;;;2.6;1.8;;;;;;;16.23;75.95508;932.5148;;;;
2022/09/25 10:32:54;;;;;;;2.1;1.9;;;;;;;16.29;75.83789;932.4863;;;;
2022/09/25 10:35:19;;;;;;;2.3;2;;;;;;;16.2;76.92285;932.4581;;;;
2022/09/25 10:37:44;;;;;;;3.7;1.9;;;;;;;16.44;76.15332;932.4713;;;;
2022/09/25 10:40:16;;;;;;;2.6;1.9;;;;;;;16.57;76.38574;932.4955;;;;
2022/09/25 10:42:47;;;;;;;1.9;1.8;;;;;;;16.58;76.44531;932.492;;;;
2022/09/25 10:45:17;;;;;;;2.8;2;;;;;;;16.35;77.33984;932.5421;;;;
2022/09/25 10:50:57;;;;;;;2.6;2.2;;;;;;;16.45;77.83203;932.4976;;;;
2022/09/25 10:53:28;;;;;;;2.3;2.1;;;;;;;16.38;78.5166;932.5051;;;;
2022/09/25 10:55:50;;;;;;;2.5;2.3;;;;;;;16.47;77.59375;932.4818;;;;
2022/09/25 10:58:15;;;;;;;3.5;2.6;;;;;;;16.55;78.31348;932.533;;;;
2022/09/25 11:00:40;;;;;;;3.6;2.7;;;;;;;16.39;79.57129;932.5636;;;;
2022/09/25 11:03:07;;;;;;;2.5;2.3;;;;;;;16.36;80.6543;932.5392;;;;
2022/09/25 11:05:34;;;;;;;2.4;2.2;;;;;;;16.59;79.58398;932.5891;;;;
2022/09/25 11:07:59;;;;;;;2.3;2.1;;;;;;;16.78;78.03125;932.5571;;;;
2022/09/25 11:10:29;;;;;;;2.5;2.1;;;;;;;16.66;77.91797;932.5854;;;;
2022/09/25 11:12:56;;;;;;;2.6;2.4;;;;;;;16.7;77.54199;932.5887;;;;
2022/09/25 11:15:21;;;;;;;2.6;2.2;;;;;;;16.45;78.85156;932.6172;;;;
2022/09/25 11:17:45;;;;;;;2.3;2.1;;;;;;;16.44;79.45215;932.5773;;;;
2022/09/25 11:20:16;;;;;;;2.3;2.1;;;;;;;16.16;80.63867;932.5128;;;;
2022/09/25 11:22:41;;;;;;;2.5;2.1;;;;;;;16.47;79.9082;932.4913;;;;
2022/09/25 11:25:06;;;;;;;2.4;1.8;;;;;;;16.62;78.65137;932.4922;;;;
2022/09/25 11:27:32;;;;;;;2.3;2;;;;;;;16.56;79.31152;932.4701;;;;
2022/09/25 11:29:57;;;;;;;2.3;2.1;;;;;;;16.56;78.97559;932.442;;;;
2022/09/25 11:32:22;;;;;;;2.1;1.9;;;;;;;16.5;79.11426;932.3043;;;;
2022/09/25 11:34:47;;;;;;;3.3;2;;;;;;;16.72;78.91211;932.3431;;;;
2022/09/25 11:37:20;;;;;;;1.8;1.7;;;;;;;16.85;78.55371;932.2802;;;;
2022/09/25 11:42:15;;;;;;;2.2;2;;;;;;;17.3;77.50879;932.3152;;;;
2022/09/25 11:44:41;;;;;;;2.3;2;;;;;;;17.43;76.51172;932.3401;;;;
2022/09/25 11:47:05;;;;;;;2.3;2.1;;;;;;;17.39;77.0957;932.2983;;;;
2022/09/25 11:49:36;;;;;;;2.2;2;;;;;;;17.88;76.54395;932.2361;;;;
2022/09/25 11:52:01;;;;;;;2.2;2;;;;;;;18.41;73.86816;932.189;;;;
2022/09/25 11:54:31;;;;;;;1.9;1.7;;;;;;;18.67;72.41113;932.1473;;;;
2022/09/25 11:56:57;;;;;;;1.7;1.6;;;;;;;19.02;68.61621;932.0773;;;;
2022/09/25 11:59:22;;;;;;;3.7;1.6;;;;;;;19.51;65.90625;932.1213;;;;
2022/09/25 12:01:53;;;;;;;2.1;1.6;;;;;;;20.1;65.72656;932.0795;;;;
2022/09/25 12:04:19;;;;;;;1.9;1.6;;;;;;;20.64;61.82129;932.0164;;;;
2022/09/25 12:06:47;;;;;;;1.9;1.8;;;;;;;19.65;65.75293;931.9432;;;;
2022/09/25 12:09:10;;;;;;;1.6;1.4;;;;;;;18.95;67.49902;931.9521;;;;
2022/09/25 12:11:44;;;;;;;1.5;1.4;;;;;;;18.93;67.75195;931.8858;;;;
2022/09/25 12:14:06;;;;;;;2.1;1.7;;;;;;;19.11;64.80957;931.8884;;;;
2022/09/25 12:16:31;;;;;;;1.7;1.6;;;;;;;19.19;67.82715;931.9006;;;;
2022/09/25 12:18:56;;;;;;;1.9;1.7;;;;;;;19.25;65.56543;931.8973;;;;
2022/09/25 12:21:24;;;;;;;2.1;1.9;;;;;;;19.64;63.24414;931.8823;;;;
2022/09/25 12:23:49;;;;;;;1.9;1.7;;;;;;;20.13;61.56445;931.7825;;;;
2022/09/25 12:26:14;;;;;;;1.9;1.8;;;;;;;19.95;61.95801;931.8416;;;;
2022/09/25 12:28:40;;;;;;;1.9;1.7;;;;;;;19.83;63.33105;931.8386;;;;
2022/09/25 12:31:05;;;;;;;1.7;1.6;;;;;;;19.65;62.95508;931.7253;;;;
2022/09/25 12:33:31;;;;;;;1.7;1.6;;;;;;;19.6;63.57715;931.7073;;;;
2022/09/25 12:35:55;;;;;;;1.9;1.7;;;;;;;20.11;61.79492;931.6903;;;;
2022/09/25 12:38:24;;;;;;;1.6;1.5;;;;;;;21.87;56.06445;931.634;;;;
2022/09/25 12:40:51;;;;;;;1.9;1.4;;;;;;;24.21;50.15332;931.6373;;;;
2022/09/25 12:43:17;;;;;;;1.8;1.4;;;;;;;24.75;46.47559;931.5692;;;;
2022/09/25 12:45:42;;;;;;;1.9;1.4;;;;;;;25.16;46.33008;931.5334;;;;
2022/09/25 12:48:07;;;;;;;1.4;1.1;;;;;;;24.37;49.94727;931.5869;;;;
2022/09/25 12:50:32;;;;;;;1.5;1.2;;;;;;;25.14;46.40918;931.5273;;;;
2022/09/25 12:52:59;;;;;;;1.2;1.1;;;;;;;25.68;46.13574;931.4885;;;;
2022/09/25 12:55:30;;;;;;;1.5;1.4;;;;;;;23.67;50.15137;931.4938;;;;
2022/09/25 12:57:54;;;;;;;1.3;1.2;;;;;;;23.72;51.02734;931.4417;;;;
2022/09/25 13:00:24;;;;;;;1;1;;;;;;;24.16;47.5918;931.4023;;;;
2022/09/25 13:02:50;;;;;;;1.5;1.2;;;;;;;22.75;51.67969;931.4856;;;;
2022/09/25 13:05:19;;;;;;;1.3;1.2;;;;;;;21.69;54.34375;931.4796;;;;
2022/09/25 13:07:44;;;;;;;1.1;1.1;;;;;;;21.11;58.71777;931.4557;;;;
2022/09/25 13:10:10;;;;;;;1;1;;;;;;;21.16;57.0625;931.3929;;;;
2022/09/25 13:12:36;;;;;;;1.4;1.2;;;;;;;21.33;56.59277;931.3806;;;;
2022/09/25 13:15:08;;;;;;;1.2;1.1;;;;;;;22.23;54.15332;931.3847;;;;
2022/09/25 13:17:33;;;;;;;1;1;;;;;;;23.02;51.85254;931.3926;;;;
2022/09/25 13:20:01;;;;;;;1.5;1.3;;;;;;;22.56;52.80762;931.4408;;;;
2022/09/25 13:22:29;;;;;;;1.4;1.3;;;;;;;21.41;57.02441;931.437;;;;
2022/09/25 13:24:54;;;;;;;1.5;1.4;;;;;;;20.16;59.89941;931.4208;;;;
2022/09/25 13:27:21;;;;;;;1.4;1.3;;;;;;;18.58;65.34863;931.5179;;;;
2022/09/25 13:29:46;;;;;;;1.5;1.4;;;;;;;18.22;67.50488;931.5377;;;;
2022/09/25 13:32:11;;;;;;;2.2;1.6;;;;;;;17.94;68.92383;931.5611;;;;
2022/09/25 13:34:36;;;;;;;2;1.6;;;;;;;17.71;69.1416;931.5588;;;;
2022/09/25 13:37:01;;;;;;;1.6;1.5;;;;;;;17.81;68.48535;931.5669;;;;
2022/09/25 13:41:57;;;;;;;2.4;1.7;;;;;;;17.24;71.61914;931.5846;;;;
2022/09/25 13:44:22;;;;;;;1.6;1.5;;;;;;;17.32;71.15723;931.5471;;;;
2022/09/25 13:46:47;;;;;;;2;1.7;;;;;;;17.36;70.80469;931.5822;;;;
2022/09/25 13:49:12;;;;;;;2.8;2.1;;;;;;;16.86;73.87598;931.6484;;;;
2022/09/25 13:51:40;;;;;;;1.6;1.5;;;;;;;16.97;72.81641;931.5958;;;;
2022/09/25 13:54:06;;;;;;;1.8;1.5;;;;;;;16.51;74.72949;931.6217;;;;
2022/09/25 13:56:32;;;;;;;1.7;1.4;;;;;;;16.77;73.97656;931.5991;;;;
2022/09/25 13:58:58;;;;;;;1.4;1.3;;;;;;;16.81;72.0127;931.6013;;;;
2022/09/25 14:01:28;;;;;;;2;1.6;;;;;;;16.76;73.08301;931.5808;;;;
2022/09/25 14:03:53;;;;;;;1.8;1.4;;;;;;;16.58;74.75293;931.5677;;;;
2022/09/25 14:06:20;;;;;;;2.6;1.8;;;;;;;16.37;74.46484;931.5779;;;;
2022/09/25 14:08:45;;;;;;;1.7;1.6;;;;;;;16.39;75.18555;931.5993;;;;
2022/09/25 14:13:35;;;;;;;1.7;1.6;;;;;;;15.98;76.0752;931.6514;;;;
2022/09/25 14:16:02;;;;;;;2.2;1.9;;;;;;;15.94;75.70898;931.6066;;;;
2022/09/25 14:18:26;;;;;;;1.6;1.2;;;;;;;15.97;74.99707;931.5714;;;;
2022/09/25 14:21:35;;;;;;;1.6;1.4;;;;;;;15.87;75.26855;931.6378;;;;
2022/09/25 14:40:45;;;;;;;1.5;1.4;;;;;;;15.14;81.50293;931.7224;;;;
2022/09/25 14:43:16;;;;;;;1.4;1.3;;;;;;;14.88;82.59375;931.7502;;;;
2022/09/25 14:45:56;;;;;;;1.3;1.2;;;;;;;15.03;81.6543;931.7525;;;;
2022/09/25 14:48:25;;;;;;;1.5;1.4;;;;;;;15.12;82.16699;931.706;;;;
2022/09/25 14:50:51;;;;;;;1.6;1.5;;;;;;;15.36;81.06934;931.7746;;;;
2022/09/25 14:53:21;;;;;;;1.9;1.4;;;;;;;15.5;80.70215;931.7665;;;;
2022/09/25 14:59:40;;;;;;;2.3;1.7;;;;;;;15.67;78.23828;931.7773;;;;
2022/09/25 15:02:04;;;;;;;2;1.3;;;;;;;15.5;80.25195;931.8059;;;;
2022/09/25 15:04:31;;;;;;;1.3;1.2;;;;;;;15.48;81.03223;931.8297;;;;
2022/09/25 15:07:01;;;;;;;1.5;1.4;;;;;;;15.47;81.33203;931.8258;;;;
2022/09/25 15:09:26;;;;;;;2.1;1.5;;;;;;;15.35;81.79395;931.7908;;;;
2022/09/25 15:11:51;;;;;;;2.3;2.1;;;;;;;15.36;82.21289;931.9094;;;;
2022/09/25 15:14:20;;;;;;;4.4;3.7;;;;;;;15.31;82.9082;931.8998;;;;
2022/09/25 15:19:11;;;;;;;5.2;2.7;;;;;;;15.11;84.92285;932.043;;;;
2022/09/25 15:21:43;;;;;;;2.1;1.6;;;;;;;;;;;;;
2022/09/25 15:24:08;;;;;;;2.2;2;;;;;;;;;;;;;
2022/09/25 15:26:35;;;;;;;2.8;2.6;;;;;;;;;;;;;
2022/09/25 15:29:01;;;;;;;2.9;2.4;;;;;;;;;;;;;
2022/09/25 15:31:26;;;;;;;2.6;2.4;;;;;;;;;;;;;
2022/09/25 15:33:51;;;;;;;2.2;1.9;;;;;;;;;;;;;
2022/09/25 15:36:16;;;;;;;1.7;1.6;;;;;;;;;;;;;
2022/09/25 15:38:42;;;;;;;2;1.9;;;;;;;;;;;;;
2022/09/25 15:41:06;;;;;;;2.6;2;;;;;;;;;;;;;
2022/09/25 15:43:32;;;;;;;2.4;2.2;;;;;;;;;;;;;
2022/09/25 15:45:57;;;;;;;2.2;2;;;;;;;;;;;;;
2022/09/25 15:48:23;;;;;;;2.6;2.1;;;;;;;;;;;;;
2022/09/25 15:50:48;;;;;;;2.7;2.3;;;;;;;;;;;;;
2022/09/25 15:53:15;;;;;;;2.3;2.1;;;;;;;;;;;;;
2022/09/25 15:55:41;;;;;;;2.5;2.2;;;;;;;;;;;;;
2022/09/25 15:58:06;;;;;;;2.6;2.3;;;;;;;;;;;;;
2022/09/25 16:05:22;;;;;;;3.9;3;;;;;;;;;;;;;
2022/09/25 16:07:48;;;;;;;3.8;2.8;;;;;;;;;;;;;
2022/09/25 16:10:14;;;;;;;7.3;4.5;;;;;;;;;;;;;
2022/09/25 16:12:41;;;;;;;4.9;3.2;;;;;;;;;;;;;
2022/09/25 16:15:05;;;;;;;2.6;2.4;;;;;;;;;;;;;
2022/09/25 16:17:30;;;;;;;2.9;2.5;;;;;;;;;;;;;
2022/09/25 16:19:55;;;;;;;2.6;2.4;;;;;;;;;;;;;
2022/09/25 16:22:22;;;;;;;2.9;2.7;;;;;;;;;;;;;
2022/09/25 16:24:47;;;;;;;4.6;3.9;;;;;;;;;;;;;
2022/09/25 16:27:11;;;;;;;2.7;2.5;;;;;;;;;;;;;
2022/09/25 16:29:37;;;;;;;4.4;3.1;;;;;;;;;;;;;
2022/09/25 16:32:02;;;;;;;4.7;3.3;;;;;;;;;;;;;
2022/09/25 16:34:27;;;;;;;4.3;3;;;;;;;;;;;;;
2022/09/25 16:36:54;;;;;;;3.6;2.9;;;;;;;;;;;;;
2022/09/25 16:39:19;;;;;;;4.6;3.7;;;;;;;;;;;;;
2022/09/25 16:41:44;;;;;;;3.3;3;;;;;;;;;;;;;
2022/09/25 16:44:13;;;;;;;4.9;4.4;;;;;;;;;;;;;
2022/09/25 16:46:34;;;;;;;6.7;5;;;;;;;;;;;;;
2022/09/25 16:49:03;;;;;;;4.3;3.3;;;;;;;;;;;;;
2022/09/25 16:51:27;;;;;;;7.2;5.6;;;;;;;;;;;;;
2022/09/25 16:53:51;;;;;;;6.1;4.7;;;;;;;;;;;;;
2022/09/25 16:56:16;;;;;;;5.6;4.8;;;;;;;;;;;;;
2022/09/25 16:58:42;;;;;;;4.4;3.7;;;;;;;;;;;;;
2022/09/25 17:01:07;;;;;;;3.4;2.8;;;;;;;;;;;;;
2022/09/25 17:03:48;;;;;;;3.5;2.9;;;;;;;;;;;;;
2022/09/25 17:05:58;;;;;;;3.5;3.2;;;;;;;;;;;;;
2022/09/25 17:11:32;;;;;;;4.9;4.1;;;;;;;;;;;;;
2022/09/25 17:14:00;;;;;;;6;3.7;;;;;;;;;;;;;
2022/09/25 17:16:25;;;;;;;18.3;12;;;;;;;;;;;;;
2022/09/25 17:18:50;;;;;;;8.3;6.5;;;;;;;;;;;;;
2022/09/25 17:21:15;;;;;;;4.7;3.8;;;;;;;;;;;;;
2022/09/25 17:23:40;;;;;;;5;3.8;;;;;;;;;;;;;
2022/09/25 17:26:13;;;;;;;3.7;3.1;;;;;;;;;;;;;
2022/09/25 17:28:40;;;;;;;7.1;6.4;;;;;;;;;;;;;
2022/09/25 17:31:05;;;;;;;4.1;3.3;;;;;;;;;;;;;